sensor_id;sensor_type;location;lat;lon;timestamp;P1;durP1;ratioP1;P2;durP2;ratioP2
4174;SDS011;2101;48.290;14.382;2023-03-14T02:27:53;18.43;;;3.37;;
4174;SDS011;2101;48.290;14.382;2023-03-14T02:30:20;20.53;;;3.60;;
4174;SDS011;2101;48.290;14.382;2023-03-14T02:32:47;15.70;;;3.27;;
4174;SDS011;2101;48.290;14.382;2023-03-14T02:35:15;31.40;;;4.80;;
4174;SDS011;2101;48.290;14.382;2023-03-14T02:37:45;16.97;;;3.43;;
4174;SDS011;2101;48.290;14.382;2023-03-14T02:40:12;18.70;;;3.97;;
4174;SDS011;2101;48.290;14.382;2023-03-14T02:42:38;27.17;;;4.40;;
4174;SDS011;2101;48.290;14.382;2023-03-14T02:47:34;23.60;;;4.77;;
4174;SDS011;2101;48.290;14.382;2023-03-14T02:50:08;24.37;;;3.77;;
4174;SDS011;2101;48.290;14.382;2023-03-14T02:52:35;19.63;;;4.53;;
4174;SDS011;2101;48.290;14.382;2023-03-14T02:55:01;18.90;;;3.87;;
4174;SDS011;2101;48.290;14.382;2023-03-14T04:25:51;15.43;;;1.60;;
4174;SDS011;2101;48.290;14.382;2023-03-14T04:29:16;12.60;;;1.80;;
4174;SDS011;2101;48.290;14.382;2023-03-14T04:32:01;12.47;;;1.77;;
4174;SDS011;2101;48.290;14.382;2023-03-14T04:37:43;13.63;;;2.00;;
4174;SDS011;2101;48.290;14.382;2023-03-14T04:40:36;13.23;;;1.73;;
4174;SDS011;2101;48.290;14.382;2023-03-14T04:43:06;21.03;;;1.73;;
4174;SDS011;2101;48.290;14.382;2023-03-14T04:46:21;15.00;;;2.20;;
4174;SDS011;2101;48.290;14.382;2023-03-14T04:49:18;11.77;;;1.40;;
4174;SDS011;2101;48.290;14.382;2023-03-14T04:52:04;14.53;;;1.57;;
4174;SDS011;2101;48.290;14.382;2023-03-14T04:59:51;15.33;;;1.63;;
4174;SDS011;2101;48.290;14.382;2023-03-14T05:02:18;12.23;;;1.57;;
4174;SDS011;2101;48.290;14.382;2023-03-14T05:04:44;15.07;;;1.63;;
4174;SDS011;2101;48.290;14.382;2023-03-14T05:07:10;14.07;;;1.87;;
4174;SDS011;2101;48.290;14.382;2023-03-14T05:09:36;13.17;;;1.70;;
4174;SDS011;2101;48.290;14.382;2023-03-14T05:12:05;14.30;;;1.77;;
4174;SDS011;2101;48.290;14.382;2023-03-14T05:14:33;13.00;;;1.67;;
4174;SDS011;2101;48.290;14.382;2023-03-14T05:17:04;14.97;;;2.37;;
4174;SDS011;2101;48.290;14.382;2023-03-14T05:19:31;28.73;;;2.60;;
4174;SDS011;2101;48.290;14.382;2023-03-14T05:22:01;18.77;;;2.97;;
4174;SDS011;2101;48.290;14.382;2023-03-14T05:25:32;19.13;;;3.57;;
4174;SDS011;2101;48.290;14.382;2023-03-14T05:28:34;15.90;;;3.40;;
4174;SDS011;2101;48.290;14.382;2023-03-14T05:34:22;18.53;;;3.93;;
4174;SDS011;2101;48.290;14.382;2023-03-14T05:36:48;20.13;;;3.90;;
4174;SDS011;2101;48.290;14.382;2023-03-14T05:39:14;16.47;;;3.20;;
4174;SDS011;2101;48.290;14.382;2023-03-14T05:41:40;20.97;;;3.70;;
4174;SDS011;2101;48.290;14.382;2023-03-14T05:44:07;17.50;;;3.17;;
4174;SDS011;2101;48.290;14.382;2023-03-14T05:46:33;16.50;;;2.90;;
4174;SDS011;2101;48.290;14.382;2023-03-14T05:48:59;19.10;;;4.23;;
4174;SDS011;2101;48.290;14.382;2023-03-14T05:51:25;19.47;;;4.30;;
4174;SDS011;2101;48.290;14.382;2023-03-14T05:53:51;19.30;;;4.70;;
4174;SDS011;2101;48.290;14.382;2023-03-14T05:56:17;18.73;;;4.07;;
4174;SDS011;2101;48.290;14.382;2023-03-14T05:58:44;19.23;;;3.80;;
4174;SDS011;2101;48.290;14.382;2023-03-14T06:01:10;18.77;;;4.00;;
4174;SDS011;2101;48.290;14.382;2023-03-14T06:03:38;27.90;;;4.20;;
4174;SDS011;2101;48.290;14.382;2023-03-14T06:06:04;17.10;;;4.13;;
4174;SDS011;2101;48.290;14.382;2023-03-14T06:08:30;18.03;;;4.30;;
4174;SDS011;2101;48.290;14.382;2023-03-14T06:10:56;22.67;;;4.67;;
4174;SDS011;2101;48.290;14.382;2023-03-14T06:13:23;18.77;;;4.23;;
4174;SDS011;2101;48.290;14.382;2023-03-14T06:15:49;19.93;;;4.80;;
4174;SDS011;2101;48.290;14.382;2023-03-14T06:18:15;21.53;;;4.63;;
4174;SDS011;2101;48.290;14.382;2023-03-14T06:20:41;20.53;;;4.10;;
4174;SDS011;2101;48.290;14.382;2023-03-14T06:23:07;18.97;;;4.70;;
4174;SDS011;2101;48.290;14.382;2023-03-14T06:25:34;22.53;;;4.37;;
4174;SDS011;2101;48.290;14.382;2023-03-14T06:28:00;25.33;;;5.00;;
4174;SDS011;2101;48.290;14.382;2023-03-14T06:30:26;23.83;;;4.93;;
4174;SDS011;2101;48.290;14.382;2023-03-14T06:32:52;22.10;;;5.10;;
4174;SDS011;2101;48.290;14.382;2023-03-14T06:35:20;17.93;;;4.10;;
4174;SDS011;2101;48.290;14.382;2023-03-14T06:37:46;20.40;;;3.73;;
4174;SDS011;2101;48.290;14.382;2023-03-14T06:40:12;18.80;;;3.60;;
4174;SDS011;2101;48.290;14.382;2023-03-14T06:42:42;16.47;;;3.00;;
4174;SDS011;2101;48.290;14.382;2023-03-14T06:45:08;15.97;;;2.90;;
4174;SDS011;2101;48.290;14.382;2023-03-14T06:47:35;18.97;;;3.10;;
4174;SDS011;2101;48.290;14.382;2023-03-14T06:50:01;18.47;;;3.70;;
4174;SDS011;2101;48.290;14.382;2023-03-14T06:52:27;20.20;;;3.10;;
4174;SDS011;2101;48.290;14.382;2023-03-14T06:54:54;15.63;;;2.90;;
4174;SDS011;2101;48.290;14.382;2023-03-14T06:57:20;17.27;;;3.87;;
4174;SDS011;2101;48.290;14.382;2023-03-14T06:59:46;19.17;;;3.50;;
4174;SDS011;2101;48.290;14.382;2023-03-14T07:02:12;16.77;;;3.50;;
4174;SDS011;2101;48.290;14.382;2023-03-14T07:04:38;24.67;;;3.40;;
4174;SDS011;2101;48.290;14.382;2023-03-14T07:07:04;17.00;;;3.80;;
4174;SDS011;2101;48.290;14.382;2023-03-14T07:09:31;18.60;;;4.13;;
4174;SDS011;2101;48.290;14.382;2023-03-14T07:11:57;21.30;;;3.70;;
4174;SDS011;2101;48.290;14.382;2023-03-14T07:14:23;19.57;;;4.00;;
4174;SDS011;2101;48.290;14.382;2023-03-14T07:16:49;17.77;;;3.40;;
4174;SDS011;2101;48.290;14.382;2023-03-14T07:19:15;17.83;;;4.33;;
4174;SDS011;2101;48.290;14.382;2023-03-14T07:21:41;19.67;;;3.77;;
4174;SDS011;2101;48.290;14.382;2023-03-14T07:24:07;17.17;;;3.90;;
4174;SDS011;2101;48.290;14.382;2023-03-14T07:26:33;19.50;;;3.60;;
4174;SDS011;2101;48.290;14.382;2023-03-14T07:29:00;17.30;;;4.23;;
4174;SDS011;2101;48.290;14.382;2023-03-14T07:31:28;19.67;;;3.10;;
4174;SDS011;2101;48.290;14.382;2023-03-14T07:33:54;23.20;;;3.63;;
4174;SDS011;2101;48.290;14.382;2023-03-14T07:36:20;20.23;;;4.37;;
4174;SDS011;2101;48.290;14.382;2023-03-14T07:38:47;17.27;;;3.60;;
4174;SDS011;2101;48.290;14.382;2023-03-14T07:41:13;19.77;;;4.30;;
4174;SDS011;2101;48.290;14.382;2023-03-14T07:43:39;23.20;;;4.40;;
4174;SDS011;2101;48.290;14.382;2023-03-14T07:46:06;22.40;;;4.20;;
4174;SDS011;2101;48.290;14.382;2023-03-14T07:48:32;20.90;;;4.07;;
4174;SDS011;2101;48.290;14.382;2023-03-14T07:50:58;20.10;;;3.30;;
4174;SDS011;2101;48.290;14.382;2023-03-14T07:53:25;16.53;;;3.40;;
4174;SDS011;2101;48.290;14.382;2023-03-14T07:55:51;20.40;;;3.93;;
4174;SDS011;2101;48.290;14.382;2023-03-14T07:58:18;22.10;;;4.17;;
4174;SDS011;2101;48.290;14.382;2023-03-14T08:00:44;19.00;;;3.67;;
4174;SDS011;2101;48.290;14.382;2023-03-14T08:03:10;17.03;;;3.50;;
4174;SDS011;2101;48.290;14.382;2023-03-14T08:05:36;18.63;;;3.70;;
4174;SDS011;2101;48.290;14.382;2023-03-14T08:08:03;19.20;;;3.23;;
4174;SDS011;2101;48.290;14.382;2023-03-14T08:10:32;16.47;;;3.00;;
4174;SDS011;2101;48.290;14.382;2023-03-14T08:12:59;20.57;;;2.93;;
4174;SDS011;2101;48.290;14.382;2023-03-14T08:15:26;15.57;;;2.80;;
4174;SDS011;2101;48.290;14.382;2023-03-14T08:17:52;20.30;;;2.43;;
4174;SDS011;2101;48.290;14.382;2023-03-14T08:20:22;14.17;;;2.20;;
4174;SDS011;2101;48.290;14.382;2023-03-14T08:22:49;19.73;;;2.20;;
4174;SDS011;2101;48.290;14.382;2023-03-14T08:25:15;14.30;;;2.50;;
4174;SDS011;2101;48.290;14.382;2023-03-14T08:27:42;19.73;;;2.70;;
4174;SDS011;2101;48.290;14.382;2023-03-14T08:30:09;16.60;;;2.27;;
4174;SDS011;2101;48.290;14.382;2023-03-14T08:32:35;13.50;;;2.00;;
4174;SDS011;2101;48.290;14.382;2023-03-14T08:35:02;18.23;;;2.40;;
4174;SDS011;2101;48.290;14.382;2023-03-14T08:37:28;11.90;;;1.23;;
4174;SDS011;2101;48.290;14.382;2023-03-14T08:39:54;12.70;;;1.40;;
4174;SDS011;2101;48.290;14.382;2023-03-14T08:42:20;13.20;;;1.40;;
4174;SDS011;2101;48.290;14.382;2023-03-14T08:44:46;11.30;;;1.07;;
4174;SDS011;2101;48.290;14.382;2023-03-14T08:47:12;12.03;;;0.90;;
4174;SDS011;2101;48.290;14.382;2023-03-14T08:49:39;13.33;;;1.00;;
4174;SDS011;2101;48.290;14.382;2023-03-14T08:52:05;11.90;;;0.90;;
4174;SDS011;2101;48.290;14.382;2023-03-14T08:54:31;11.93;;;1.07;;
4174;SDS011;2101;48.290;14.382;2023-03-14T08:56:57;11.20;;;0.80;;
4174;SDS011;2101;48.290;14.382;2023-03-14T08:59:23;11.93;;;0.70;;
4174;SDS011;2101;48.290;14.382;2023-03-14T09:01:49;10.70;;;0.80;;
4174;SDS011;2101;48.290;14.382;2023-03-14T09:04:15;11.77;;;0.73;;
4174;SDS011;2101;48.290;14.382;2023-03-14T09:06:42;13.83;;;0.90;;
4174;SDS011;2101;48.290;14.382;2023-03-14T09:09:08;11.33;;;0.80;;
4174;SDS011;2101;48.290;14.382;2023-03-14T09:11:34;10.60;;;0.70;;
4174;SDS011;2101;48.290;14.382;2023-03-14T09:14:01;11.97;;;0.80;;
4174;SDS011;2101;48.290;14.382;2023-03-14T09:16:27;11.00;;;0.80;;
4174;SDS011;2101;48.290;14.382;2023-03-14T09:18:53;10.97;;;0.90;;
4174;SDS011;2101;48.290;14.382;2023-03-14T09:21:20;10.97;;;0.87;;
4174;SDS011;2101;48.290;14.382;2023-03-14T09:23:46;12.47;;;1.17;;
4174;SDS011;2101;48.290;14.382;2023-03-14T09:26:12;10.97;;;0.67;;
4174;SDS011;2101;48.290;14.382;2023-03-14T09:28:38;10.53;;;0.60;;
4174;SDS011;2101;48.290;14.382;2023-03-14T09:31:05;10.40;;;0.70;;
4174;SDS011;2101;48.290;14.382;2023-03-14T09:33:33;12.20;;;1.00;;
4174;SDS011;2101;48.290;14.382;2023-03-14T09:35:59;11.67;;;0.80;;
4174;SDS011;2101;48.290;14.382;2023-03-14T09:38:27;11.00;;;0.80;;
4174;SDS011;2101;48.290;14.382;2023-03-14T09:40:53;11.90;;;1.10;;
4174;SDS011;2101;48.290;14.382;2023-03-14T09:43:21;11.73;;;0.80;;
4174;SDS011;2101;48.290;14.382;2023-03-14T09:45:48;11.93;;;1.00;;
4174;SDS011;2101;48.290;14.382;2023-03-14T09:48:20;16.10;;;1.00;;
4174;SDS011;2101;48.290;14.382;2023-03-14T09:50:48;10.80;;;0.80;;
4174;SDS011;2101;48.290;14.382;2023-03-14T09:53:16;13.40;;;0.87;;
4174;SDS011;2101;48.290;14.382;2023-03-14T09:55:43;10.80;;;0.80;;
4174;SDS011;2101;48.290;14.382;2023-03-14T09:58:11;11.97;;;1.00;;
4174;SDS011;2101;48.290;14.382;2023-03-14T10:00:38;10.53;;;0.80;;
4174;SDS011;2101;48.290;14.382;2023-03-14T10:05:40;14.97;;;1.20;;
4174;SDS011;2101;48.290;14.382;2023-03-14T10:08:10;16.07;;;0.93;;
4174;SDS011;2101;48.290;14.382;2023-03-14T10:10:36;13.93;;;1.20;;
4174;SDS011;2101;48.290;14.382;2023-03-14T10:15:41;10.90;;;0.70;;
4174;SDS011;2101;48.290;14.382;2023-03-14T10:18:12;11.87;;;0.80;;
4174;SDS011;2101;48.290;14.382;2023-03-14T10:20:39;12.40;;;0.70;;
4174;SDS011;2101;48.290;14.382;2023-03-14T10:23:17;10.07;;;0.60;;
4174;SDS011;2101;48.290;14.382;2023-03-14T10:25:46;10.27;;;0.60;;
4174;SDS011;2101;48.290;14.382;2023-03-14T10:28:26;10.33;;;0.67;;
4174;SDS011;2101;48.290;14.382;2023-03-14T10:30:52;10.70;;;0.70;;
4174;SDS011;2101;48.290;14.382;2023-03-14T10:38:40;10.50;;;0.70;;
4174;SDS011;2101;48.290;14.382;2023-03-14T10:41:17;11.93;;;0.60;;
4174;SDS011;2101;48.290;14.382;2023-03-14T10:43:48;12.40;;;0.90;;
4174;SDS011;2101;48.290;14.382;2023-03-14T10:46:15;10.53;;;0.80;;
4174;SDS011;2101;48.290;14.382;2023-03-14T10:48:42;10.17;;;0.60;;
4174;SDS011;2101;48.290;14.382;2023-03-14T10:51:11;10.90;;;0.70;;
4174;SDS011;2101;48.290;14.382;2023-03-14T10:53:44;10.90;;;0.70;;
4174;SDS011;2101;48.290;14.382;2023-03-14T10:56:11;10.23;;;0.60;;
4174;SDS011;2101;48.290;14.382;2023-03-14T11:11:41;11.87;;;1.20;;
4174;SDS011;2101;48.290;14.382;2023-03-14T11:16:47;11.67;;;1.00;;
4174;SDS011;2101;48.290;14.382;2023-03-14T11:21:58;13.00;;;1.23;;
4174;SDS011;2101;48.290;14.382;2023-03-14T11:24:28;11.87;;;1.13;;
4174;SDS011;2101;48.290;14.382;2023-03-14T11:31:59;13.50;;;1.50;;
4174;SDS011;2101;48.290;14.382;2023-03-14T11:34:28;17.10;;;1.33;;
4174;SDS011;2101;48.290;14.382;2023-03-14T11:36:57;11.13;;;1.00;;
4174;SDS011;2101;48.290;14.382;2023-03-14T11:39:26;13.80;;;0.87;;
4174;SDS011;2101;48.290;14.382;2023-03-14T11:41:55;11.20;;;0.90;;
4174;SDS011;2101;48.290;14.382;2023-03-14T11:44:30;12.13;;;0.97;;
4174;SDS011;2101;48.290;14.382;2023-03-14T11:47:12;12.33;;;1.20;;
4174;SDS011;2101;48.290;14.382;2023-03-14T11:49:47;19.20;;;1.50;;
4174;SDS011;2101;48.290;14.382;2023-03-14T11:52:23;12.10;;;1.10;;
4174;SDS011;2101;48.290;14.382;2023-03-14T11:57:18;11.57;;;1.10;;
4174;SDS011;2101;48.290;14.382;2023-03-14T12:07:17;10.50;;;0.70;;
4174;SDS011;2101;48.290;14.382;2023-03-14T12:09:44;11.20;;;0.80;;
4174;SDS011;2101;48.290;14.382;2023-03-14T12:12:12;10.90;;;0.80;;
4174;SDS011;2101;48.290;14.382;2023-03-14T12:14:44;11.20;;;0.70;;
4174;SDS011;2101;48.290;14.382;2023-03-14T12:19:46;10.93;;;0.77;;
4174;SDS011;2101;48.290;14.382;2023-03-14T12:22:17;21.10;;;1.20;;
4174;SDS011;2101;48.290;14.382;2023-03-14T12:24:50;11.40;;;0.70;;
4174;SDS011;2101;48.290;14.382;2023-03-14T12:27:38;11.57;;;0.93;;
4174;SDS011;2101;48.290;14.382;2023-03-14T12:30:14;10.83;;;0.70;;
4174;SDS011;2101;48.290;14.382;2023-03-14T12:32:41;11.53;;;0.80;;
4174;SDS011;2101;48.290;14.382;2023-03-14T12:35:32;19.97;;;1.27;;
4174;SDS011;2101;48.290;14.382;2023-03-14T12:37:53;12.00;;;0.90;;
4174;SDS011;2101;48.290;14.382;2023-03-14T12:40:21;19.60;;;1.30;;
4174;SDS011;2101;48.290;14.382;2023-03-14T12:42:58;12.77;;;1.00;;
4174;SDS011;2101;48.290;14.382;2023-03-14T12:45:25;15.50;;;1.33;;
4174;SDS011;2101;48.290;14.382;2023-03-14T12:50:19;10.97;;;0.90;;
4174;SDS011;2101;48.290;14.382;2023-03-14T12:52:54;11.00;;;0.73;;
4174;SDS011;2101;48.290;14.382;2023-03-14T12:58:25;17.90;;;0.70;;
4174;SDS011;2101;48.290;14.382;2023-03-14T13:01:04;11.47;;;0.77;;
4174;SDS011;2101;48.290;14.382;2023-03-14T13:03:51;11.50;;;0.70;;
4174;SDS011;2101;48.290;14.382;2023-03-14T13:12:14;10.90;;;0.70;;
4174;SDS011;2101;48.290;14.382;2023-03-14T13:14:49;11.50;;;0.77;;
4174;SDS011;2101;48.290;14.382;2023-03-14T13:17:59;14.07;;;0.83;;
4174;SDS011;2101;48.290;14.382;2023-03-14T13:20:36;11.20;;;0.70;;
4174;SDS011;2101;48.290;14.382;2023-03-14T13:23:22;11.07;;;0.63;;
4174;SDS011;2101;48.290;14.382;2023-03-14T13:25:52;12.70;;;0.70;;
4174;SDS011;2101;48.290;14.382;2023-03-14T13:28:18;10.80;;;0.63;;
4174;SDS011;2101;48.290;14.382;2023-03-14T13:30:46;11.10;;;0.60;;
4174;SDS011;2101;48.290;14.382;2023-03-14T13:33:17;11.10;;;0.73;;
4174;SDS011;2101;48.290;14.382;2023-03-14T13:35:44;11.20;;;0.70;;
4174;SDS011;2101;48.290;14.382;2023-03-14T13:38:22;11.77;;;0.70;;
4174;SDS011;2101;48.290;14.382;2023-03-14T13:40:50;11.20;;;0.60;;
4174;SDS011;2101;48.290;14.382;2023-03-14T13:48:43;10.90;;;0.70;;
4174;SDS011;2101;48.290;14.382;2023-03-14T13:51:11;10.83;;;0.60;;
4174;SDS011;2101;48.290;14.382;2023-03-14T13:53:42;11.10;;;0.70;;
4174;SDS011;2101;48.290;14.382;2023-03-14T13:56:09;11.30;;;0.70;;
4174;SDS011;2101;48.290;14.382;2023-03-14T13:58:38;11.40;;;0.90;;
4174;SDS011;2101;48.290;14.382;2023-03-14T14:03:41;10.80;;;0.60;;
4174;SDS011;2101;48.290;14.382;2023-03-14T14:08:56;10.90;;;0.70;;
4174;SDS011;2101;48.290;14.382;2023-03-14T14:14:03;11.23;;;0.70;;
4174;SDS011;2101;48.290;14.382;2023-03-14T14:16:30;11.40;;;0.63;;
4174;SDS011;2101;48.290;14.382;2023-03-14T14:18:57;11.47;;;0.80;;
4174;SDS011;2101;48.290;14.382;2023-03-14T14:21:24;14.90;;;0.90;;
4174;SDS011;2101;48.290;14.382;2023-03-14T14:23:51;10.90;;;0.70;;
4174;SDS011;2101;48.290;14.382;2023-03-14T14:26:20;11.73;;;0.80;;
4174;SDS011;2101;48.290;14.382;2023-03-14T14:28:58;12.80;;;0.90;;
4174;SDS011;2101;48.290;14.382;2023-03-14T14:31:25;10.90;;;0.70;;
4174;SDS011;2101;48.290;14.382;2023-03-14T14:34:01;11.10;;;0.70;;
4174;SDS011;2101;48.290;14.382;2023-03-14T14:36:32;11.73;;;0.70;;
4174;SDS011;2101;48.290;14.382;2023-03-14T14:39:10;11.20;;;0.70;;
4174;SDS011;2101;48.290;14.382;2023-03-14T14:41:41;11.83;;;0.70;;
4174;SDS011;2101;48.290;14.382;2023-03-14T14:44:32;11.10;;;0.70;;
4174;SDS011;2101;48.290;14.382;2023-03-14T14:47:14;10.70;;;0.63;;
4174;SDS011;2101;48.290;14.382;2023-03-14T14:49:43;10.90;;;0.60;;
4174;SDS011;2101;48.290;14.382;2023-03-14T14:52:13;10.67;;;0.57;;
4174;SDS011;2101;48.290;14.382;2023-03-14T14:58:40;10.53;;;0.60;;
4174;SDS011;2101;48.290;14.382;2023-03-14T15:03:41;11.50;;;0.87;;
4174;SDS011;2101;48.290;14.382;2023-03-14T15:06:08;10.80;;;0.80;;
4174;SDS011;2101;48.290;14.382;2023-03-14T15:08:36;10.60;;;0.60;;
4174;SDS011;2101;48.290;14.382;2023-03-14T15:11:02;11.30;;;0.70;;
4174;SDS011;2101;48.290;14.382;2023-03-14T15:13:29;10.60;;;0.60;;
4174;SDS011;2101;48.290;14.382;2023-03-14T15:15:55;10.70;;;0.60;;
4174;SDS011;2101;48.290;14.382;2023-03-14T15:18:21;10.60;;;0.60;;
4174;SDS011;2101;48.290;14.382;2023-03-14T15:20:49;10.53;;;0.60;;
4174;SDS011;2101;48.290;14.382;2023-03-14T15:23:17;10.53;;;0.60;;
4174;SDS011;2101;48.290;14.382;2023-03-14T15:25:43;11.50;;;0.63;;
4174;SDS011;2101;48.290;14.382;2023-03-14T15:28:16;10.67;;;0.60;;
4174;SDS011;2101;48.290;14.382;2023-03-14T15:30:45;13.87;;;1.30;;
4174;SDS011;2101;48.290;14.382;2023-03-14T15:33:12;12.27;;;1.30;;
4174;SDS011;2101;48.290;14.382;2023-03-14T15:35:38;11.30;;;0.70;;
4174;SDS011;2101;48.290;14.382;2023-03-14T15:38:13;10.57;;;0.60;;
4174;SDS011;2101;48.290;14.382;2023-03-14T15:40:40;10.80;;;0.70;;
4174;SDS011;2101;48.290;14.382;2023-03-14T15:43:06;11.10;;;0.73;;
4174;SDS011;2101;48.290;14.382;2023-03-14T15:45:33;10.67;;;0.60;;
4174;SDS011;2101;48.290;14.382;2023-03-14T15:47:59;10.80;;;0.60;;
4174;SDS011;2101;48.290;14.382;2023-03-14T15:50:26;10.70;;;0.60;;
4174;SDS011;2101;48.290;14.382;2023-03-14T15:52:55;10.90;;;0.70;;
4174;SDS011;2101;48.290;14.382;2023-03-14T15:55:22;10.90;;;0.70;;
4174;SDS011;2101;48.290;14.382;2023-03-14T15:57:48;10.53;;;0.60;;
4174;SDS011;2101;48.290;14.382;2023-03-14T16:00:16;10.93;;;0.60;;
4174;SDS011;2101;48.290;14.382;2023-03-14T16:02:43;11.10;;;0.70;;
4174;SDS011;2101;48.290;14.382;2023-03-14T16:05:10;10.70;;;0.60;;
4174;SDS011;2101;48.290;14.382;2023-03-14T16:07:37;12.03;;;0.60;;
4174;SDS011;2101;48.290;14.382;2023-03-14T16:10:05;10.60;;;0.70;;
4174;SDS011;2101;48.290;14.382;2023-03-14T16:12:32;11.17;;;0.80;;
4174;SDS011;2101;48.290;14.382;2023-03-14T16:14:58;11.70;;;0.90;;
4174;SDS011;2101;48.290;14.382;2023-03-14T16:17:25;10.77;;;0.80;;
4174;SDS011;2101;48.290;14.382;2023-03-14T16:19:51;12.93;;;1.60;;
4174;SDS011;2101;48.290;14.382;2023-03-14T16:22:17;12.00;;;1.10;;
4174;SDS011;2101;48.290;14.382;2023-03-14T16:25:07;15.93;;;1.77;;
4174;SDS011;2101;48.290;14.382;2023-03-14T16:27:33;14.93;;;1.23;;
4174;SDS011;2101;48.290;14.382;2023-03-14T16:30:22;14.47;;;1.70;;
4174;SDS011;2101;48.290;14.382;2023-03-14T16:33:13;14.23;;;1.73;;
4174;SDS011;2101;48.290;14.382;2023-03-14T16:35:56;13.10;;;1.47;;
4174;SDS011;2101;48.290;14.382;2023-03-14T16:38:25;17.23;;;1.57;;
4174;SDS011;2101;48.290;14.382;2023-03-14T16:41:06;13.83;;;1.77;;
4174;SDS011;2101;48.290;14.382;2023-03-14T16:43:42;14.63;;;1.57;;
4174;SDS011;2101;48.290;14.382;2023-03-14T16:46:13;14.23;;;1.10;;
4174;SDS011;2101;48.290;14.382;2023-03-14T16:48:43;12.07;;;1.00;;
4174;SDS011;2101;48.290;14.382;2023-03-14T16:51:11;12.90;;;1.53;;
4174;SDS011;2101;48.290;14.382;2023-03-14T16:53:55;11.73;;;1.20;;
4174;SDS011;2101;48.290;14.382;2023-03-14T16:56:33;14.83;;;1.40;;
4174;SDS011;2101;48.290;14.382;2023-03-14T16:59:38;14.33;;;1.60;;
4174;SDS011;2101;48.290;14.382;2023-03-14T17:02:51;13.43;;;1.40;;
4174;SDS011;2101;48.290;14.382;2023-03-14T17:08:33;12.07;;;1.03;;
4174;SDS011;2101;48.290;14.382;2023-03-14T17:11:00;11.83;;;0.90;;
4174;SDS011;2101;48.290;14.382;2023-03-14T17:13:26;13.80;;;1.33;;
4174;SDS011;2101;48.290;14.382;2023-03-14T17:15:56;15.13;;;0.90;;
4174;SDS011;2101;48.290;14.382;2023-03-14T17:18:23;14.50;;;0.90;;
4174;SDS011;2101;48.290;14.382;2023-03-14T17:20:51;11.17;;;1.00;;
4174;SDS011;2101;48.290;14.382;2023-03-14T17:23:17;12.07;;;1.00;;
4174;SDS011;2101;48.290;14.382;2023-03-14T17:25:47;11.90;;;0.93;;
4174;SDS011;2101;48.290;14.382;2023-03-14T17:28:14;12.07;;;1.10;;
4174;SDS011;2101;48.290;14.382;2023-03-14T17:30:40;10.93;;;0.80;;
4174;SDS011;2101;48.290;14.382;2023-03-14T17:33:07;12.10;;;1.00;;
4174;SDS011;2101;48.290;14.382;2023-03-14T17:35:33;13.30;;;0.90;;
4174;SDS011;2101;48.290;14.382;2023-03-14T17:37:59;12.57;;;1.33;;
4174;SDS011;2101;48.290;14.382;2023-03-14T17:40:25;11.30;;;0.80;;
4174;SDS011;2101;48.290;14.382;2023-03-14T17:42:51;10.63;;;0.70;;
4174;SDS011;2101;48.290;14.382;2023-03-14T17:45:20;13.60;;;1.10;;
4174;SDS011;2101;48.290;14.382;2023-03-14T17:47:48;13.73;;;0.93;;
4174;SDS011;2101;48.290;14.382;2023-03-14T17:50:15;12.13;;;0.80;;
4174;SDS011;2101;48.290;14.382;2023-03-14T17:52:41;10.60;;;0.80;;
4174;SDS011;2101;48.290;14.382;2023-03-14T17:55:07;13.80;;;1.67;;
4174;SDS011;2101;48.290;14.382;2023-03-14T17:57:35;17.93;;;1.33;;
4174;SDS011;2101;48.290;14.382;2023-03-14T18:00:07;13.27;;;1.30;;
4174;SDS011;2101;48.290;14.382;2023-03-14T18:02:34;14.20;;;1.43;;
4174;SDS011;2101;48.290;14.382;2023-03-14T18:05:00;16.40;;;2.00;;
4174;SDS011;2101;48.290;14.382;2023-03-14T18:07:26;14.10;;;1.80;;
4174;SDS011;2101;48.290;14.382;2023-03-14T18:09:52;22.90;;;2.00;;
4174;SDS011;2101;48.290;14.382;2023-03-14T18:12:18;13.13;;;1.50;;
4174;SDS011;2101;48.290;14.382;2023-03-14T18:14:44;13.43;;;1.10;;
4174;SDS011;2101;48.290;14.382;2023-03-14T18:17:11;14.80;;;1.33;;
4174;SDS011;2101;48.290;14.382;2023-03-14T18:19:38;15.60;;;1.50;;
4174;SDS011;2101;48.290;14.382;2023-03-14T18:22:08;15.50;;;1.70;;
4174;SDS011;2101;48.290;14.382;2023-03-14T18:24:34;13.23;;;1.30;;
4174;SDS011;2101;48.290;14.382;2023-03-14T18:27:00;11.70;;;0.93;;
4174;SDS011;2101;48.290;14.382;2023-03-14T18:29:26;11.20;;;0.93;;
4174;SDS011;2101;48.290;14.382;2023-03-14T18:31:55;14.63;;;1.33;;
4174;SDS011;2101;48.290;14.382;2023-03-14T18:34:24;13.30;;;1.20;;
4174;SDS011;2101;48.290;14.382;2023-03-14T18:36:50;14.87;;;1.30;;
4174;SDS011;2101;48.290;14.382;2023-03-14T18:39:16;13.63;;;1.00;;
4174;SDS011;2101;48.290;14.382;2023-03-14T18:41:43;13.37;;;0.87;;
4174;SDS011;2101;48.290;14.382;2023-03-14T18:44:09;12.83;;;0.90;;
4174;SDS011;2101;48.290;14.382;2023-03-14T18:46:35;14.60;;;0.90;;
4174;SDS011;2101;48.290;14.382;2023-03-14T18:49:02;10.80;;;0.70;;
4174;SDS011;2101;48.290;14.382;2023-03-14T18:51:28;14.67;;;1.20;;
4174;SDS011;2101;48.290;14.382;2023-03-14T18:53:55;11.83;;;1.10;;
4174;SDS011;2101;48.290;14.382;2023-03-14T18:56:25;15.83;;;1.40;;
4174;SDS011;2101;48.290;14.382;2023-03-14T18:58:51;11.43;;;1.00;;
4174;SDS011;2101;48.290;14.382;2023-03-14T19:01:17;16.30;;;1.23;;
4174;SDS011;2101;48.290;14.382;2023-03-14T19:03:44;17.13;;;1.73;;
4174;SDS011;2101;48.290;14.382;2023-03-14T19:06:12;12.70;;;1.10;;
4174;SDS011;2101;48.290;14.382;2023-03-14T19:08:39;12.40;;;1.10;;
4174;SDS011;2101;48.290;14.382;2023-03-14T19:11:06;12.40;;;0.70;;
4174;SDS011;2101;48.290;14.382;2023-03-14T19:13:33;14.83;;;0.80;;
4174;SDS011;2101;48.290;14.382;2023-03-14T19:15:59;11.70;;;0.73;;
4174;SDS011;2101;48.290;14.382;2023-03-14T19:18:26;10.50;;;0.60;;
4174;SDS011;2101;48.290;14.382;2023-03-14T19:20:59;11.80;;;0.80;;
4174;SDS011;2101;48.290;14.382;2023-03-14T19:23:27;11.87;;;0.90;;
4174;SDS011;2101;48.290;14.382;2023-03-14T19:25:54;11.00;;;0.90;;
4174;SDS011;2101;48.290;14.382;2023-03-14T19:28:20;11.57;;;1.00;;
4174;SDS011;2101;48.290;14.382;2023-03-14T19:30:47;14.43;;;0.90;;
4174;SDS011;2101;48.290;14.382;2023-03-14T19:33:13;11.63;;;1.10;;
4174;SDS011;2101;48.290;14.382;2023-03-14T19:35:41;13.23;;;1.10;;
4174;SDS011;2101;48.290;14.382;2023-03-14T19:38:07;11.27;;;0.90;;
4174;SDS011;2101;48.290;14.382;2023-03-14T19:40:38;11.00;;;0.80;;
4174;SDS011;2101;48.290;14.382;2023-03-14T19:43:05;11.70;;;0.90;;
4174;SDS011;2101;48.290;14.382;2023-03-14T19:45:32;11.40;;;1.17;;
4174;SDS011;2101;48.290;14.382;2023-03-14T19:47:59;12.97;;;1.20;;
4174;SDS011;2101;48.290;14.382;2023-03-14T19:50:26;13.03;;;1.23;;
4174;SDS011;2101;48.290;14.382;2023-03-14T19:52:56;12.50;;;0.90;;
4174;SDS011;2101;48.290;14.382;2023-03-14T19:55:23;14.10;;;1.40;;
4174;SDS011;2101;48.290;14.382;2023-03-14T19:57:51;17.70;;;1.37;;
4174;SDS011;2101;48.290;14.382;2023-03-14T20:00:19;11.20;;;0.80;;
4174;SDS011;2101;48.290;14.382;2023-03-14T20:02:51;13.73;;;1.10;;
4174;SDS011;2101;48.290;14.382;2023-03-14T20:05:19;13.53;;;1.37;;
4174;SDS011;2101;48.290;14.382;2023-03-14T20:07:46;13.83;;;1.50;;
4174;SDS011;2101;48.290;14.382;2023-03-14T20:10:14;12.90;;;1.03;;
4174;SDS011;2101;48.290;14.382;2023-03-14T20:12:45;14.57;;;1.50;;
4174;SDS011;2101;48.290;14.382;2023-03-14T20:15:12;12.50;;;1.00;;
4174;SDS011;2101;48.290;14.382;2023-03-14T20:17:43;12.67;;;1.43;;
4174;SDS011;2101;48.290;14.382;2023-03-14T20:20:09;11.83;;;1.00;;
4174;SDS011;2101;48.290;14.382;2023-03-14T20:22:37;14.17;;;1.30;;
4174;SDS011;2101;48.290;14.382;2023-03-14T20:25:07;14.10;;;1.90;;
4174;SDS011;2101;48.290;14.382;2023-03-14T20:27:34;15.20;;;1.60;;
4174;SDS011;2101;48.290;14.382;2023-03-14T20:30:00;13.10;;;1.40;;
4174;SDS011;2101;48.290;14.382;2023-03-14T20:32:30;14.93;;;1.53;;